Time;durP1;ratioP1;P1;durP2;ratioP2;P2;SDS_P1;SDS_P2;PMS_P1;PMS_P2;Temp;Humidity;BMP_temperature;BMP_pressure;BME280_temperature;BME280_humidity;BME280_pressure;Samples;Min_cycle;Max_cycle;Signal;HPM_P1;HPM_P2
2022/10/29 00:00:03;;;;;;;20.25;4.60;;;11.80;99.90;;;;;;4989299;28;20055;-69
2022/10/29 00:02:28;;;;;;;15.55;4.40;;;11.80;99.90;;;;;;4987943;28;20096;-69
2022/10/29 00:04:54;;;;;;;;;;;12.10;99.90;;;;;;4990341;28;20057;-69
2022/10/29 00:07:20;;;;;;;15.43;4.55;;;12.00;99.90;;;;;;4985581;28;19968;-68
2022/10/29 00:09:45;;;;;;;14.98;4.20;;;11.80;99.90;;;;;;4987238;28;20086;-69
2022/10/29 00:12:11;;;;;;;;;;;11.80;99.90;;;;;;4988592;28;20092;-69
2022/10/29 00:14:37;;;;;;;6.80;3.40;;;11.80;99.90;;;;;;5003766;28;19929;-69
2022/10/29 00:17:02;;;;;;;6.78;3.10;;;11.80;99.90;;;;;;4989500;28;20039;-70
2022/10/29 00:19:30;;;;;;;17.20;3.45;;;11.70;99.90;;;;;;4989622;28;20046;-70
2022/10/29 00:21:56;;;;;;;;;;;11.80;99.90;;;;;;4990816;28;20042;-70
2022/10/29 00:24:22;;;;;;;11.23;3.03;;;11.70;99.90;;;;;;4991705;28;19922;-70
2022/10/29 00:26:47;;;;;;;11.35;3.58;;;11.60;99.90;;;;;;4993091;28;20087;-70
2022/10/29 00:29:13;;;;;;;14.45;3.17;;;11.60;99.90;;;;;;4990334;28;20049;-70
2022/10/29 00:31:39;;;;;;;10.95;3.28;;;11.50;99.90;;;;;;4991479;28;20091;-71
2022/10/29 00:34:04;;;;;;;9.18;3.05;;;11.50;99.90;;;;;;4992270;28;20046;-70
2022/10/29 00:36:30;;;;;;;;;;;11.50;99.90;;;;;;4991694;28;20064;-69
2022/10/29 00:38:55;;;;;;;8.95;3.28;;;11.50;99.90;;;;;;5006840;28;19972;-69
2022/10/29 00:41:28;;;;;;;9.23;3.83;;;11.50;99.90;;;;;;4999985;28;20049;-70
2022/10/29 00:44:19;;;;;;;15.85;3.53;;;11.60;99.90;;;;;;4999935;28;20117;-70
2022/10/29 00:47:19;;;;;;;10.20;3.53;;;11.50;99.90;;;;;;4999798;28;20054;-70
2022/10/29 00:50:10;;;;;;;10.48;3.30;;;11.50;99.90;;;;;;5002332;28;20057;-70
2022/10/29 00:52:39;;;;;;;8.05;3.65;;;11.50;99.90;;;;;;4998454;28;20086;-69
2022/10/29 00:55:08;;;;;;;13.68;3.50;;;11.60;99.90;;;;;;5000946;28;20125;-70
2022/10/29 00:57:37;;;;;;;13.80;3.70;;;11.60;99.90;;;;;;4998786;28;20061;-70
2022/10/29 01:00:03;;;;;;;12.48;3.50;;;11.70;99.90;;;;;;5006047;28;20514;-70
2022/10/29 01:02:32;;;;;;;10.32;3.55;;;11.60;99.90;;;;;;5018437;28;20490;-70
2022/10/29 01:04:59;;;;;;;19.63;3.47;;;11.60;99.90;;;;;;5005378;28;20030;-70
2022/10/29 01:07:25;;;;;;;13.55;3.08;;;12.50;99.90;;;;;;5005276;28;20054;-69
2022/10/29 01:09:50;;;;;;;;;;;11.60;99.90;;;;;;5004793;28;20034;-70
2022/10/29 01:12:42;;;;;;;11.02;3.17;;;11.50;99.90;;;;;;5008798;28;20407;-70
2022/10/29 01:15:19;;;;;;;17.55;4.00;;;11.50;99.90;;;;;;5000734;28;20099;-70
2022/10/29 01:17:50;;;;;;;8.48;3.10;;;11.50;99.90;;;;;;5003649;28;20054;-70
2022/10/29 01:20:48;;;;;;;8.23;2.90;;;11.50;99.90;;;;;;5008450;28;20095;-70
2022/10/29 01:23:44;;;;;;;10.00;3.42;;;11.50;99.90;;;;;;5002532;28;20042;-70
2022/10/29 01:26:42;;;;;;;13.65;3.25;;;11.60;99.90;;;;;;5004185;28;20046;-70
2022/10/29 01:29:42;;;;;;;12.15;3.83;;;11.50;99.90;;;;;;5000430;28;20506;-70
2022/10/29 01:32:14;;;;;;;13.20;3.97;;;11.60;99.90;;;;;;4988553;28;20046;-69
2022/10/29 01:34:42;;;;;;;12.27;4.13;;;11.60;99.90;;;;;;4989448;28;20053;-69
2022/10/29 01:37:11;;;;;;;14.68;3.97;;;11.60;99.90;;;;;;4989516;28;20046;-69
2022/10/29 01:39:42;;;;;;;11.25;4.05;;;11.50;99.90;;;;;;4989956;28;20272;-69
2022/10/29 01:42:31;;;;;;;8.40;3.72;;;11.50;99.90;;;;;;4989974;28;20383;-69
2022/10/29 01:45:16;;;;;;;6.28;3.53;;;11.50;99.90;;;;;;4986979;28;20517;-70
2022/10/29 01:47:52;;;;;;;15.60;4.35;;;11.60;99.90;;;;;;4990444;28;20095;-69
2022/10/29 01:50:21;;;;;;;15.33;3.73;;;11.60;99.90;;;;;;4989135;28;20146;-70
2022/10/29 01:52:48;;;;;;;13.55;3.95;;;11.50;99.90;;;;;;4990101;28;20293;-69
2022/10/29 01:55:26;;;;;;;7.55;3.60;;;11.50;99.90;;;;;;4990700;28;20390;-69
2022/10/29 01:57:52;;;;;;;13.88;3.97;;;11.40;99.90;;;;;;4985605;28;20103;-69
2022/10/29 02:00:22;;;;;;;;;;;11.40;99.90;;;;;;4990040;28;20042;-69
2022/10/29 02:03:14;;;;;;;9.35;3.65;;;11.40;99.90;;;;;;4986688;28;19968;-69
2022/10/29 02:06:01;;;;;;;10.50;3.67;;;11.40;99.90;;;;;;4989240;28;20390;-69
2022/10/29 02:09:01;;;;;;;8.55;3.28;;;11.40;99.90;;;;;;4987341;28;20053;-70
2022/10/29 02:12:00;;;;;;;14.23;3.50;;;11.40;99.90;;;;;;4987093;28;20065;-70
2022/10/29 02:14:35;;;;;;;6.68;3.72;;;11.50;99.90;;;;;;4993960;28;20038;-70
2022/10/29 02:17:02;;;;;;;9.43;3.78;;;11.60;99.90;;;;;;4990699;28;20082;-70
2022/10/29 02:19:31;;;;;;;6.22;3.33;;;11.40;99.90;;;;;;4989328;28;20470;-70
2022/10/29 02:21:57;;;;;;;5.38;3.30;;;11.40;99.90;;;;;;4990153;28;20051;-69
2022/10/29 02:24:23;;;;;;;;;;;11.50;99.90;;;;;;4991378;28;20076;-70
2022/10/29 02:26:49;;;;;;;5.47;3.80;;;11.40;99.90;;;;;;4988190;28;19921;-70
2022/10/29 02:29:15;;;;;;;9.70;3.65;;;11.50;99.90;;;;;;4990077;28;20077;-70
2022/10/29 02:31:44;;;;;;;;;;;11.50;99.90;;;;;;4990503;28;20081;-70
2022/10/29 02:34:09;;;;;;;17.20;4.30;;;11.50;99.90;;;;;;4991898;28;19921;-70
2022/10/29 02:36:35;;;;;;;;;;;11.50;99.90;;;;;;4992063;28;20181;-70
2022/10/29 02:39:00;;;;;;;12.98;4.15;;;11.50;99.90;;;;;;4989001;28;20319;-70
2022/10/29 02:41:26;;;;;;;;;;;11.60;99.90;;;;;;4988987;28;20594;-70
2022/10/29 02:43:54;;;;;;;15.05;4.70;;;11.60;99.90;;;;;;4990589;28;19922;-70
2022/10/29 02:46:24;;;;;;;14.32;4.10;;;11.60;99.90;;;;;;4989817;28;20080;-70
2022/10/29 02:48:53;;;;;;;13.18;3.92;;;11.60;99.90;;;;;;4987800;28;20046;-70
2022/10/29 02:51:18;;;;;;;;;;;11.70;99.90;;;;;;4990063;28;20387;-70
2022/10/29 02:53:44;;;;;;;10.48;4.15;;;11.60;99.90;;;;;;4989418;28;19926;-70
2022/10/29 02:56:10;;;;;;;;;;;11.60;99.90;;;;;;5013462;28;20047;-71
2022/10/29 02:58:36;;;;;;;9.85;4.15;;;11.50;99.90;;;;;;4988326;28;19925;-70
2022/10/29 03:01:03;;;;;;;10.63;4.10;;;11.60;99.90;;;;;;4989844;28;20410;-69
2022/10/29 03:03:28;;;;;;;11.23;4.10;;;11.50;99.90;;;;;;4988631;28;20179;-69
2022/10/29 03:05:54;;;;;;;;;;;11.50;99.90;;;;;;4990243;28;20046;-69
2022/10/29 03:08:19;;;;;;;5.28;3.88;;;11.50;99.90;;;;;;4988910;28;19929;-69
2022/10/29 03:10:45;;;;;;;;;;;11.50;99.90;;;;;;4989146;28;20062;-69
2022/10/29 03:13:11;;;;;;;6.10;3.75;;;11.40;99.90;;;;;;4989362;28;19921;-69
2022/10/29 03:15:37;;;;;;;6.40;3.88;;;11.40;99.90;;;;;;4992134;28;20043;-70
2022/10/29 03:18:04;;;;;;;8.70;4.00;;;11.40;99.90;;;;;;4987983;28;20057;-71
2022/10/29 03:20:30;;;;;;;6.30;3.88;;;11.40;99.90;;;;;;4989270;28;20046;-69
2022/10/29 03:22:55;;;;;;;7.65;3.67;;;11.40;99.90;;;;;;4988924;28;20053;-69
2022/10/29 03:25:24;;;;;;;;;;;11.30;99.90;;;;;;4988450;28;20046;-69
2022/10/29 03:27:50;;;;;;;7.18;4.40;;;11.30;99.90;;;;;;4988073;28;19926;-69
2022/10/29 03:30:18;;;;;;;;;;;11.30;99.90;;;;;;4987339;28;20383;-69
2022/10/29 03:32:46;;;;;;;8.02;3.85;;;11.30;99.90;;;;;;4987990;28;19922;-69
2022/10/29 03:35:13;;;;;;;6.97;3.83;;;11.30;99.90;;;;;;4989481;28;20044;-69
2022/10/29 03:37:41;;;;;;;6.60;3.80;;;11.30;99.90;;;;;;4988548;28;20046;-70
2022/10/29 03:40:07;;;;;;;;;;;11.30;99.90;;;;;;4989749;28;20038;-69
2022/10/29 03:42:36;;;;;;;7.80;4.40;;;11.30;99.90;;;;;;4986656;28;19925;-70
2022/10/29 03:45:05;;;;;;;7.93;3.97;;;11.30;99.90;;;;;;4983627;28;20054;-69
2022/10/29 03:47:32;;;;;;;10.50;4.35;;;11.30;99.90;;;;;;4988588;28;20555;-70
2022/10/29 03:49:58;;;;;;;8.75;4.07;;;11.30;99.90;;;;;;4986606;28;20042;-69
2022/10/29 03:52:23;;;;;;;;;;;11.50;99.90;;;;;;4987236;28;20050;-69
2022/10/29 03:54:49;;;;;;;9.75;4.90;;;11.30;99.90;;;;;;4992362;28;19983;-69
2022/10/29 03:57:14;;;;;;;;;;;11.30;99.90;;;;;;4994532;28;20042;-69
2022/10/29 03:59:40;;;;;;;16.63;4.32;;;11.30;99.90;;;;;;4990888;28;19984;-69
2022/10/29 04:02:05;;;;;;;;;;;11.30;99.90;;;;;;4991144;28;20049;-70
2022/10/29 04:04:31;;;;;;;10.13;3.83;;;11.30;99.90;;;;;;4990148;28;19976;-70
2022/10/29 04:06:56;;;;;;;;;;;11.40;99.90;;;;;;4991297;28;20532;-69
2022/10/29 04:09:22;;;;;;;8.00;3.72;;;11.40;99.90;;;;;;4991555;28;19947;-70
2022/10/29 04:11:48;;;;;;;;;;;11.30;99.90;;;;;;4990973;28;20054;-69
2022/10/29 04:14:13;;;;;;;10.35;4.30;;;11.40;99.90;;;;;;4991531;28;20008;-71
2022/10/29 04:16:39;;;;;;;10.50;4.50;;;11.30;99.90;;;;;;4990470;28;20045;-70
2022/10/29 04:19:04;;;;;;;;;;;12.40;99.90;;;;;;4991441;28;20046;-70
2022/10/29 04:21:30;;;;;;;10.13;4.00;;;11.30;99.90;;;;;;4992298;28;19957;-71
2022/10/29 04:23:56;;;;;;;9.18;4.00;;;11.30;99.90;;;;;;4990972;28;20062;-70
2022/10/29 04:26:21;;;;;;;;;;;11.40;99.90;;;;;;4990574;28;20030;-70
2022/10/29 04:28:51;;;;;;;13.43;3.35;;;11.30;99.90;;;;;;4990626;28;20312;-70
2022/10/29 04:31:17;;;;;;;11.05;3.90;;;11.40;99.90;;;;;;4989533;28;20054;-71
2022/10/29 04:33:49;;;;;;;14.30;3.90;;;11.50;99.90;;;;;;4989894;28;20076;-71
2022/10/29 04:36:14;;;;;;;8.20;4.22;;;11.50;99.90;;;;;;4991599;28;20513;-70
2022/10/29 04:38:40;;;;;;;;;;;11.50;99.90;;;;;;4990445;28;20104;-70
2022/10/29 04:41:15;;;;;;;11.18;4.10;;;11.50;99.90;;;;;;4991741;28;19945;-70
2022/10/29 04:43:40;;;;;;;17.00;4.40;;;11.50;99.90;;;;;;4991988;28;20076;-70
2022/10/29 04:46:06;;;;;;;;;;;11.50;99.90;;;;;;4990488;28;20147;-70
2022/10/29 04:48:32;;;;;;;19.00;4.30;;;11.60;99.90;;;;;;4990816;28;19921;-70
2022/10/29 04:50:57;;;;;;;16.83;4.30;;;11.50;99.90;;;;;;4991432;28;20053;-70
2022/10/29 04:53:23;;;;;;;11.50;4.25;;;11.70;99.90;;;;;;4992480;28;20118;-70
2022/10/29 04:55:48;;;;;;;19.80;3.75;;;11.70;99.90;;;;;;4990837;28;20490;-70
2022/10/29 04:58:16;;;;;;;;;;;11.70;99.90;;;;;;4991367;28;20060;-70
2022/10/29 05:00:43;;;;;;;15.52;4.50;;;11.70;99.90;;;;;;4988518;28;20465;-71
2022/10/29 05:03:11;;;;;;;19.25;3.80;;;11.70;99.90;;;;;;4989404;28;20045;-71
2022/10/29 05:05:38;;;;;;;;;;;11.70;99.90;;;;;;4990552;28;20038;-69
2022/10/29 05:08:04;;;;;;;18.57;4.43;;;11.80;99.90;;;;;;4989975;28;20316;-71
2022/10/29 05:10:33;;;;;;;18.80;4.53;;;11.90;99.90;;;;;;4988898;28;20290;-71
2022/10/29 05:13:10;;;;;;;30.25;5.20;;;11.90;99.90;;;;;;4991382;28;20469;-70
2022/10/29 05:15:36;;;;;;;27.15;5.68;;;11.90;99.90;;;;;;4990064;28;20039;-70
2022/10/29 05:18:02;;;;;;;22.92;5.38;;;12.00;99.90;;;;;;4991097;28;20050;-70
2022/10/29 05:20:28;;;;;;;37.90;5.85;;;11.90;99.90;;;;;;4989506;28;20039;-70
2022/10/29 05:23:05;;;;;;;36.17;5.40;;;11.90;99.90;;;;;;4992940;28;20452;-71
2022/10/29 05:25:39;;;;;;;33.22;6.25;;;11.90;99.90;;;;;;4991172;28;20042;-71
2022/10/29 05:28:19;;;;;;;30.23;5.82;;;12.00;99.90;;;;;;4990637;28;20050;-71
2022/10/29 05:30:49;;;;;;;39.70;5.82;;;12.10;99.90;;;;;;4987232;28;20486;-70
2022/10/29 05:33:18;;;;;;;36.47;6.30;;;12.10;99.90;;;;;;4987672;28;20055;-69
2022/10/29 05:35:44;;;;;;;30.48;5.97;;;12.10;99.90;;;;;;5010702;28;20046;-70
2022/10/29 05:38:11;;;;;;;41.85;6.63;;;12.10;99.90;;;;;;4990537;28;20034;-70
2022/10/29 05:40:38;;;;;;;35.78;6.35;;;12.10;99.90;;;;;;4993345;28;20073;-70
2022/10/29 05:43:04;;;;;;;35.20;5.78;;;12.20;99.90;;;;;;4990236;28;20560;-71
2022/10/29 05:45:30;;;;;;;47.03;6.32;;;12.20;99.90;;;;;;4990193;28;20039;-70
2022/10/29 05:47:59;;;;;;;;;;;12.20;99.90;;;;;;4991188;28;20055;-70
2022/10/29 05:50:27;;;;;;;45.65;6.32;;;12.20;99.90;;;;;;4990225;28;19933;-71
2022/10/29 05:52:57;;;;;;;48.58;7.22;;;12.20;99.90;;;;;;4992060;28;20050;-70
2022/10/29 05:55:23;;;;;;;46.30;7.47;;;12.30;99.90;;;;;;4990418;28;20041;-70
2022/10/29 05:57:49;;;;;;;52.78;7.90;;;12.30;99.90;;;;;;4989713;28;20049;-71
2022/10/29 06:00:15;;;;;;;;;;;12.30;99.90;;;;;;4989644;28;20432;-71
2022/10/29 06:02:44;;;;;;;44.92;7.88;;;12.30;99.90;;;;;;4993392;28;19943;-71
2022/10/29 06:05:10;;;;;;;55.58;8.02;;;12.40;99.90;;;;;;5009936;28;20050;-71
2022/10/29 06:07:35;;;;;;;;;;;12.30;99.90;;;;;;4990476;28;20508;-71
2022/10/29 06:10:01;;;;;;;59.22;7.30;;;12.30;99.90;;;;;;4989855;28;20365;-72
2022/10/29 06:12:29;;;;;;;46.95;7.60;;;12.30;99.90;;;;;;4987752;28;20398;-72
2022/10/29 06:14:55;;;;;;;55.45;8.10;;;12.50;99.90;;;;;;4990264;28;20049;-72
2022/10/29 06:17:20;;;;;;;;;;;12.60;99.90;;;;;;4990404;28;20050;-69
2022/10/29 06:19:46;;;;;;;31.67;6.43;;;12.50;99.90;;;;;;4989918;28;19922;-71
2022/10/29 06:22:12;;;;;;;42.83;7.25;;;12.70;99.90;;;;;;4990786;28;20482;-69
2022/10/29 06:24:37;;;;;;;50.90;7.88;;;12.50;99.90;;;;;;4989714;28;20071;-69
2022/10/29 06:27:03;;;;;;;36.65;7.68;;;12.30;99.90;;;;;;4989573;28;20497;-70
2022/10/29 06:29:29;;;;;;;36.22;6.80;;;12.40;99.90;;;;;;4989546;28;20080;-70
2022/10/29 06:31:54;;;;;;;41.25;8.15;;;12.40;99.90;;;;;;4992214;28;20126;-69
2022/10/29 06:34:20;;;;;;;52.67;8.95;;;12.40;99.90;;;;;;4992863;28;20060;-70
2022/10/29 06:36:46;;;;;;;;;;;12.40;99.90;;;;;;4988953;28;20046;-70
2022/10/29 06:39:11;;;;;;;54.72;6.78;;;12.40;99.90;;;;;;4989581;28;20412;-70
2022/10/29 06:41:37;;;;;;;;;;;12.40;99.90;;;;;;5012841;28;20050;-70
2022/10/29 06:44:02;;;;;;;47.20;6.88;;;12.50;99.90;;;;;;4989912;28;19933;-70
2022/10/29 06:46:28;;;;;;;;;;;12.40;99.90;;;;;;4988830;28;20045;-70
2022/10/29 06:48:54;;;;;;;41.88;7.25;;;12.50;99.90;;;;;;4987821;28;20389;-70
2022/10/29 06:51:19;;;;;;;47.53;6.78;;;12.50;99.90;;;;;;4989752;28;20037;-69
2022/10/29 06:53:45;;;;;;;40.45;6.97;;;12.50;99.90;;;;;;4988924;28;20100;-70
2022/10/29 06:56:10;;;;;;;34.92;6.75;;;12.50;99.90;;;;;;4987853;28;20045;-71
2022/10/29 06:58:36;;;;;;;;;;;12.50;99.90;;;;;;4989510;28;20042;-68
2022/10/29 07:01:04;;;;;;;35.33;7.88;;;12.50;99.90;;;;;;4989084;28;19929;-70
2022/10/29 07:03:30;;;;;;;36.10;7.93;;;12.50;99.90;;;;;;4993060;28;20062;-70
2022/10/29 07:05:57;;;;;;;;;;;12.60;99.90;;;;;;4989445;28;20077;-69
2022/10/29 07:08:23;;;;;;;;;;;12.60;99.90;;;;;;4999393;28;20475;-70
2022/10/29 07:10:52;;;;;;;60.57;8.30;;;12.60;99.90;;;;;;5006199;28;20020;-72
2022/10/29 07:13:18;;;;;;;36.38;7.57;;;12.60;99.90;;;;;;4985329;28;20050;-69
2022/10/29 07:15:44;;;;;;;;;;;12.50;99.90;;;;;;5011910;28;20034;-72
2022/10/29 07:18:10;;;;;;;57.08;8.55;;;12.60;99.90;;;;;;5014254;28;19919;-68
2022/10/29 07:20:40;;;;;;;43.95;7.85;;;12.50;99.90;;;;;;5004483;28;20518;-73
2022/10/29 07:23:09;;;;;;;33.15;7.82;;;12.70;99.90;;;;;;5007104;28;20060;-72
2022/10/29 07:25:36;;;;;;;45.28;8.13;;;12.40;99.90;;;;;;5004657;28;20035;-75
2022/10/29 07:28:19;;;;;;;38.92;8.07;;;12.50;99.90;;;;;;4988164;28;20058;-73
2022/10/29 07:30:47;;;;;;;30.67;7.10;;;12.50;99.90;;;;;;5004282;28;20057;-72
2022/10/29 07:33:13;;;;;;;42.28;7.65;;;12.50;99.90;;;;;;5001568;28;20570;-73
2022/10/29 07:35:42;;;;;;;52.80;8.30;;;12.50;99.90;;;;;;4994114;28;20050;-72
2022/10/29 07:38:09;;;;;;;36.08;7.35;;;12.60;99.90;;;;;;4990480;28;20042;-71
2022/10/29 07:40:35;;;;;;;40.00;7.30;;;12.60;99.90;;;;;;4990542;28;20096;-80
2022/10/29 07:43:04;;;;;;;48.72;8.07;;;12.60;99.90;;;;;;4991908;28;20042;-72
2022/10/29 07:45:30;;;;;;;47.80;8.27;;;12.60;99.90;;;;;;4990856;28;20443;-76
2022/10/29 07:48:06;;;;;;;40.00;7.50;;;12.70;99.90;;;;;;4990335;28;20056;-75
2022/10/29 07:50:31;;;;;;;35.85;6.60;;;12.70;99.90;;;;;;4990473;28;20141;-76
2022/10/29 07:53:01;;;;;;;37.83;7.68;;;12.80;99.90;;;;;;4991389;28;20154;-76
2022/10/29 07:55:27;;;;;;;44.55;7.70;;;12.70;99.90;;;;;;4991684;28;20485;-79
2022/10/29 07:58:01;;;;;;;28.42;6.70;;;12.80;99.90;;;;;;5015576;28;20052;-78
2022/10/29 08:00:34;;;;;;;37.05;6.93;;;12.90;99.90;;;;;;4993059;28;20043;-79
2022/10/29 08:03:00;;;;;;;35.25;8.35;;;12.90;99.90;;;;;;4996218;28;20054;-80
2022/10/29 08:05:27;;;;;;;33.97;7.63;;;13.00;99.90;;;;;;4991397;28;20051;-74
2022/10/29 08:07:54;;;;;;;42.60;8.40;;;13.10;99.90;;;;;;5008025;28;20050;-72
2022/10/29 08:10:20;;;;;;;37.47;9.10;;;13.20;99.90;;;;;;4996392;28;20047;-79
2022/10/29 08:12:53;;;;;;;37.70;9.15;;;13.20;99.90;;;;;;5032137;27;20058;-75
2022/10/29 08:15:19;;;;;;;59.42;10.13;;;13.30;99.90;;;;;;5010719;28;20129;-78
2022/10/29 08:17:45;;;;;;;40.65;8.77;;;13.30;99.90;;;;;;5002111;28;20229;-77
2022/10/29 08:20:15;;;;;;;35.20;9.65;;;13.40;99.90;;;;;;5002090;28;20046;-75
2022/10/29 08:22:40;;;;;;;43.13;9.32;;;13.40;99.90;;;;;;5017536;28;20036;-79
2022/10/29 08:25:06;;;;;;;38.20;9.00;;;13.40;99.90;;;;;;5008460;28;20095;-75
2022/10/29 08:27:32;;;;;;;33.25;9.65;;;13.40;99.90;;;;;;4995640;28;20482;-79
2022/10/29 08:29:58;;;;;;;32.72;10.68;;;13.40;99.90;;;;;;4990033;28;20046;-71
2022/10/29 08:32:24;;;;;;;36.25;12.65;;;13.50;99.90;;;;;;4991966;28;20042;-72
2022/10/29 08:34:49;;;;;;;33.25;10.85;;;13.50;99.90;;;;;;4992227;28;20040;-73
2022/10/29 08:37:15;;;;;;;37.17;11.63;;;13.80;99.90;;;;;;4991628;28;20405;-70
2022/10/29 08:39:41;;;;;;;32.83;11.82;;;13.60;99.90;;;;;;4986437;28;20065;-71
2022/10/29 08:42:34;;;;;;;36.38;12.50;;;13.60;99.90;;;;;;4992319;28;20478;-72
2022/10/29 08:45:12;;;;;;;36.22;12.63;;;13.60;99.90;;;;;;4991357;28;20066;-74
2022/10/29 08:48:19;;;;;;;34.78;12.75;;;13.70;99.90;;;;;;4989822;28;20054;-73
2022/10/29 08:50:51;;;;;;;41.78;13.77;;;13.80;99.90;;;;;;5011431;28;20046;-74
2022/10/29 08:53:23;;;;;;;36.13;13.90;;;14.00;99.90;;;;;;4989232;28;20414;-74
2022/10/29 08:55:49;;;;;;;38.40;14.57;;;14.00;99.90;;;;;;4991204;28;20046;-70
2022/10/29 08:58:44;;;;;;;40.72;16.50;;;14.00;99.90;;;;;;4991893;28;20073;-71
2022/10/29 09:01:11;;;;;;;43.58;16.15;;;14.00;99.90;;;;;;4986879;28;20092;-74
2022/10/29 09:03:37;;;;;;;45.95;17.20;;;14.00;99.90;;;;;;4987304;28;20050;-74
2022/10/29 09:06:21;;;;;;;39.40;16.05;;;14.00;99.90;;;;;;4991435;28;20153;-74
2022/10/29 09:08:59;;;;;;;39.05;16.50;;;14.10;99.90;;;;;;4996618;28;20520;-74
2022/10/29 09:11:50;;;;;;;38.97;17.60;;;14.10;99.90;;;;;;5013299;28;20469;-72
2022/10/29 09:14:27;;;;;;;41.63;17.40;;;14.20;99.90;;;;;;4960010;28;20046;-71
2022/10/29 09:17:19;;;;;;;;;;;14.10;99.90;;;;;;4990767;28;20058;-74
2022/10/29 09:19:52;;;;;;;37.90;16.15;;;14.00;99.90;;;;;;5006595;28;20320;-72
2022/10/29 09:22:29;;;;;;;33.65;17.05;;;14.10;99.90;;;;;;5008436;28;20097;-73
2022/10/29 09:25:08;;;;;;;36.03;17.23;;;14.00;99.90;;;;;;5012056;28;20058;-72
2022/10/29 09:28:10;;;;;;;40.50;17.83;;;14.10;99.90;;;;;;5003591;28;20046;-72
2022/10/29 09:31:05;;;;;;;39.10;16.75;;;14.10;99.90;;;;;;5020730;28;20051;-75
2022/10/29 09:33:40;;;;;;;36.47;17.77;;;14.20;99.90;;;;;;4998523;28;20081;-74
2022/10/29 09:36:24;;;;;;;38.05;16.67;;;14.30;99.90;;;;;;5005676;28;20035;-76
2022/10/29 09:39:18;;;;;;;35.95;17.02;;;14.40;99.90;;;;;;5010396;28;20038;-74
2022/10/29 09:41:47;;;;;;;38.60;17.33;;;14.50;99.90;;;;;;5012081;28;20046;-78
2022/10/29 09:44:41;;;;;;;39.50;18.15;;;14.70;99.90;;;;;;5021368;28;20049;-75
2022/10/29 09:47:37;;;;;;;40.40;17.85;;;15.00;99.90;;;;;;4999567;28;20054;-79
2022/10/29 09:50:32;;;;;;;38.97;17.23;;;15.40;99.90;;;;;;5010777;28;20044;-80
2022/10/29 09:52:58;;;;;;;36.97;17.15;;;15.70;99.90;;;;;;5013367;28;20536;-76
2022/10/29 09:55:31;;;;;;;34.53;17.70;;;15.70;99.90;;;;;;5019119;28;20043;-76
2022/10/29 09:57:57;;;;;;;30.35;16.05;;;15.80;99.90;;;;;;5011130;28;20544;-84
2022/10/29 10:00:26;;;;;;;32.15;16.10;;;15.80;99.90;;;;;;5003675;28;20114;-73
2022/10/29 10:03:07;;;;;;;33.35;16.38;;;15.90;99.90;;;;;;5002774;28;20061;-72
2022/10/29 10:05:34;;;;;;;27.33;14.60;;;16.00;99.90;;;;;;5012255;28;20045;-75
2022/10/29 10:08:13;;;;;;;23.85;14.02;;;16.30;99.90;;;;;;5022214;28;20044;-76
2022/10/29 10:10:53;;;;;;;27.70;13.90;;;16.30;99.90;;;;;;5005011;28;20049;-78
2022/10/29 10:13:24;;;;;;;24.17;12.85;;;16.40;99.90;;;;;;5003988;28;20471;-74
2022/10/29 10:16:06;;;;;;;24.15;13.35;;;16.40;99.90;;;;;;5017648;28;20034;-72
2022/10/29 10:18:32;;;;;;;24.50;13.43;;;16.50;99.90;;;;;;5003825;28;21383;-78
2022/10/29 10:21:13;;;;;;;23.98;12.02;;;16.50;99.90;;;;;;4985543;28;20037;-69
2022/10/29 10:23:42;;;;;;;22.60;10.75;;;16.60;99.90;;;;;;4985883;28;20512;-70
2022/10/29 10:26:35;;;;;;;18.77;10.02;;;16.60;99.90;;;;;;5008209;28;20118;-71
2022/10/29 10:29:16;;;;;;;24.70;10.73;;;16.70;99.90;;;;;;4989697;28;20441;-71
2022/10/29 10:32:02;;;;;;;21.02;9.70;;;16.80;99.90;;;;;;4988354;28;20042;-71
2022/10/29 10:34:33;;;;;;;18.53;10.13;;;16.90;99.90;;;;;;4998498;28;20050;-71
2022/10/29 10:37:04;;;;;;;20.65;11.13;;;16.90;99.90;;;;;;5010975;28;20134;-72
2022/10/29 10:39:29;;;;;;;17.73;9.85;;;16.90;99.90;;;;;;4999354;28;20033;-71
2022/10/29 10:42:02;;;;;;;17.77;9.70;;;16.80;99.90;;;;;;5001836;28;20442;-73
2022/10/29 10:44:28;;;;;;;18.80;10.82;;;16.70;99.90;;;;;;5000678;28;20497;-74
2022/10/29 10:46:56;;;;;;;19.80;10.43;;;16.70;99.90;;;;;;5010832;28;20078;-72
2022/10/29 10:49:30;;;;;;;19.83;10.57;;;16.70;99.90;;;;;;4995817;28;20037;-72
2022/10/29 10:51:58;;;;;;;18.85;11.38;;;16.60;99.90;;;;;;4997482;28;20050;-71
2022/10/29 10:54:32;;;;;;;18.30;10.70;;;16.70;99.90;;;;;;4998464;28;20107;-71
2022/10/29 10:57:11;;;;;;;16.45;10.25;;;16.80;99.90;;;;;;5035663;27;20048;-71
2022/10/29 10:59:55;;;;;;;18.05;10.80;;;17.10;99.90;;;;;;4989970;28;20490;-71
2022/10/29 11:02:33;;;;;;;16.70;10.20;;;17.40;99.90;;;;;;5001833;28;20129;-70
2022/10/29 11:05:15;;;;;;;17.55;9.90;;;17.50;99.90;;;;;;4987747;28;20049;-71
2022/10/29 11:07:56;;;;;;;17.73;9.38;;;17.60;99.90;;;;;;4988895;28;20050;-71
2022/10/29 11:10:31;;;;;;;17.63;10.68;;;17.60;99.90;;;;;;4985553;28;20058;-73
2022/10/29 11:13:01;;;;;;;22.50;10.10;;;17.40;99.90;;;;;;4987847;28;20086;-75
2022/10/29 11:15:42;;;;;;;21.00;10.73;;;17.40;99.90;;;;;;4988455;28;20371;-72
2022/10/29 11:18:24;;;;;;;20.38;10.88;;;17.30;99.90;;;;;;4989383;28;20058;-73
2022/10/29 11:21:03;;;;;;;19.60;10.82;;;17.40;99.90;;;;;;4986094;28;20045;-78
2022/10/29 11:23:40;;;;;;;21.48;10.35;;;17.50;99.90;;;;;;4988820;28;20420;-75
2022/10/29 11:26:15;;;;;;;21.92;11.45;;;17.60;99.90;;;;;;5012990;28;20050;-73
2022/10/29 11:29:12;;;;;;;23.10;10.90;;;17.80;99.90;;;;;;4990152;28;20152;-72
2022/10/29 11:32:08;;;;;;;22.27;11.88;;;17.80;99.90;;;;;;4989970;28;20042;-76
2022/10/29 11:34:37;;;;;;;21.58;11.10;;;17.90;99.90;;;;;;4990253;28;20046;-71
2022/10/29 11:37:28;;;;;;;22.63;13.13;;;17.90;99.90;;;;;;4989579;28;20046;-73
2022/10/29 11:40:17;;;;;;;20.55;11.55;;;17.90;99.90;;;;;;4997916;28;20046;-76
2022/10/29 11:42:43;;;;;;;24.00;11.55;;;18.00;99.90;;;;;;4986906;28;20042;-76
2022/10/29 11:45:18;;;;;;;22.50;11.65;;;18.00;99.90;;;;;;5007929;28;20030;-77
2022/10/29 11:48:02;;;;;;;20.67;11.27;;;18.20;99.90;;;;;;4986791;28;20077;-74
2022/10/29 11:50:48;;;;;;;23.45;11.00;;;18.80;99.90;;;;;;4987188;28;20030;-75
2022/10/29 11:53:45;;;;;;;22.08;11.35;;;20.10;99.90;;;;;;4984677;28;20042;-75
2022/10/29 11:56:44;;;;;;;42.13;15.07;;;20.50;99.90;;;;;;4991166;28;20049;-75
2022/10/29 11:59:22;;;;;;;21.42;11.60;;;20.10;99.90;;;;;;5009333;28;20419;-74
2022/10/29 12:02:14;;;;;;;48.88;16.70;;;19.70;99.90;;;;;;4985605;28;20081;-75
2022/10/29 12:04:44;;;;;;;77.68;23.13;;;19.40;99.90;;;;;;4966613;28;20054;-77
2022/10/29 12:07:25;;;;;;;28.60;12.82;;;19.20;99.90;;;;;;4984543;28;20050;-76
2022/10/29 12:10:45;;;;;;;22.50;11.52;;;19.20;99.90;;;;;;4986941;28;20078;-75
2022/10/29 12:13:25;;;;;;;19.33;11.10;;;20.70;99.90;;;;;;4956164;28;20044;-77
2022/10/29 12:16:06;;;;;;;20.77;11.32;;;22.40;99.90;;;;;;4989001;28;20054;-81
2022/10/29 12:18:41;;;;;;;19.05;10.40;;;22.80;99.90;;;;;;5011254;28;20049;-72
2022/10/29 12:21:45;;;;;;;19.88;10.52;;;23.50;99.90;;;;;;4988576;28;20054;-72
2022/10/29 12:24:22;;;;;;;19.30;10.55;;;23.50;99.90;;;;;;4988820;28;20046;-72
2022/10/29 12:27:02;;;;;;;15.60;9.80;;;23.10;99.90;;;;;;4987679;28;20039;-73
2022/10/29 12:29:42;;;;;;;17.10;10.55;;;22.80;99.90;;;;;;4988111;28;20046;-75
2022/10/29 12:32:31;;;;;;;16.13;10.15;;;22.60;99.90;;;;;;4993341;28;20043;-73
2022/10/29 12:35:27;;;;;;;15.43;8.75;;;22.20;99.90;;;;;;4992140;28;20042;-75
2022/10/29 12:38:24;;;;;;;16.13;9.50;;;21.50;99.90;;;;;;4997239;28;20069;-70
2022/10/29 12:40:57;;;;;;;17.27;10.48;;;21.00;99.90;;;;;;5008061;28;20077;-74
2022/10/29 12:43:28;;;;;;;18.27;10.30;;;20.50;99.90;;;;;;4991536;28;20046;-74
2022/10/29 12:46:05;;;;;;;18.13;10.43;;;20.10;99.90;;;;;;4992466;28;20046;-74
2022/10/29 12:49:00;;;;;;;19.42;10.30;;;20.00;99.90;;;;;;4988812;28;20048;-75
2022/10/29 12:51:47;;;;;;;18.17;9.80;;;19.80;99.90;;;;;;4991219;28;20058;-76
2022/10/29 12:54:28;;;;;;;19.08;10.50;;;19.80;99.90;;;;;;4987895;28;20046;-73
2022/10/29 12:57:04;;;;;;;20.95;10.02;;;19.80;99.90;;;;;;4991421;28;20058;-76
2022/10/29 12:59:31;;;;;;;;;;;19.90;99.90;;;;;;4991228;28;20119;-73
2022/10/29 13:02:46;;;;;;;18.17;10.10;;;19.90;99.90;;;;;;4987306;28;20456;-73
2022/10/29 13:05:15;;;;;;;19.40;10.30;;;19.90;99.90;;;;;;4992076;28;20425;-73
2022/10/29 13:07:47;;;;;;;15.68;9.60;;;20.00;99.90;;;;;;5002512;28;20097;-71
2022/10/29 13:10:26;;;;;;;18.42;10.07;;;20.00;99.90;;;;;;4993266;28;20047;-70
2022/10/29 13:12:57;;;;;;;20.08;9.25;;;20.00;99.90;;;;;;4988612;28;20068;-70
2022/10/29 13:15:46;;;;;;;16.75;9.15;;;20.00;99.90;;;;;;4989051;28;20130;-71